Terminal Aerodrome Forecast
Issued by NWS Cleveland, OH

Home | Current Version | Previous Version | Text Only | Print | Product List | Glossary On
Versions: 1 2 3 4 5 6 7 8 9 10 11 12 13 14 15 16 17 18 19 20
000
FTUS41 KCLE 270500 CCA
TAFERI
TAF COR
KERI 270548Z 2706/2806 22006KT P6SM BKN120 OVC250
     FM270900 26006KT P6SM SCT250
     FM271100 31006KT 5SM BR BKN008
     FM271300 34006KT P6SM BKN015
     FM271600 35008KT P6SM FEW035
     FM280000 36006KT P6SM SCT250=

USA.gov is the U.S. government's official web portal to all federal, state and local government web resources and services.